Etusivu
METAR-TAF:

METAR-TAF

Lentoasemat :

St. Francis, Kansas, Yhdysvallat

Leveyspiiri: 39-45-40N, Pituuspiiri: 101-47-45W, korkeus merenpinnasta: 1040 m

Tämänhetkinen sää

Tämä raportti tehtiin 30 minuuttia sitten, kello 22.55 UTC
Tuuli 23 kn pohjoisesta/koillisesta puuskistuen 29 kn:hen
Lämpötila 35°C
Kosteus 19%
Ilmanpaine 1010 hPa
Näkyvyys: 16.1 km
Muutamia pilviä 5000 ft:n korkeudessa
Hajanaisia pilviä 8500 ft:n korkeudessa
Hajanaisia pilviä 11000 ft:n korkeudessa

METAR: KSYF 242255Z AUTO 02023G29KT 10SM FEW050 SCT085 SCT110 35/08 A2983 RMK AO2

Aika: 18:25 (23:25 UTC)


TAF: puuttuu

Säähavainnot ja -ennusteet yli 4000 lentoasemalta (METAR- ja TAF-raportit).

Käytössä olevat sääasemat on merkitty karttaan keltaisilla ja punaisilla pisteillä.

Aseta hiiri pisteen päälle nähdäksesi sääaseman nimen.

Klikkaa sitten nähdäksesi säähavainnot ja -ennusteet.

Kartan vaihtaminen: klikkaa mustalla rastilla varustettuja vihreitä pisteitä, niin voit zoomata sisään; viivalla varustettua vihreää pistettä, niin voit zoomata ulos tai vihreitä nuolia, niin pääset viereisille kartoille.


METAR-TAF: